You are listening to:
KOSH Fisk VFR Approach #1 - Oshkosh, Wisconsin, United States

KOSH 171553Z 36006KT 10SM FEW018 BKN039 08/04 A3004 RMK AO2 SLP179 T00830039

If stream does not start automatically press the play button